Flight Track Log - Related Links

Times and Time Zones

All times are in EDT time to prevent confusion due to time zone crossing. See the EJA583 flight status page for this flight to view local times or setup timezone preferences in your user account.

Time Position Orientation Groundspeed Altitude Reporting Facility
EDT Latitude Longitude Course Direction KTS MPH feet Rate Location/Type
Wed 03:00:39 PM 38.4225 -122.7561 154° Southeast 221 254 5,500  Level Oakland Center
Wed 03:01:41 PM 38.3511 -122.7289 163° South 261 300 8,800 2,829 Climbing Oakland Center
Wed 03:02:00 PM 37.9840 -122.4174 142° Southeast  Level FlightAware Approximate
Wed 03:02:42 PM 38.2756 -122.6994 163° South 286 329 11,300  Level Oakland Center
Wed 03:03:00 PM 37.8985 -122.3490 152° Southeast  Level FlightAware Approximate
Wed 03:03:44 PM 38.1914 -122.6647 162° South 317 365 12,700  Level Oakland Center
Wed 03:04:00 PM 37.8087 -122.2891 152° Southeast  Level FlightAware Approximate
Wed 03:04:45 PM 38.1036 -122.6269 161° South 331 381 14,400  Level Oakland Center
Wed 03:05:00 PM 37.5178 -122.0940 155° Southeast  Level FlightAware Approximate
Wed 03:05:47 PM 38.0139 -122.5858 160° South 340 391 16,100  Level Oakland Center
Wed 03:06:48 PM 37.9239 -122.5153 148° Southeast 365 420 17,800 1,512 Climbing Oakland Center
Wed 03:07:50 PM 37.8372 -122.4436 147° Southeast 366 421 19,200 1,512 Climbing Oakland Center
Wed 03:08:51 PM 37.7528 -122.3733 147° Southeast 364 419 20,900 1,610 Climbing Oakland Center
Wed 03:09:53 PM 37.6678 -122.3022 146° Southeast 365 420 22,500 1,548 Climbing Oakland Center
Wed 03:10:55 PM 37.5825 -122.2292 146° Southeast 368 423 24,100 1,659 Climbing Oakland Center
Wed 03:11:56 PM 37.4769 -122.1417 147° Southeast 376 433 25,900 1,415 Climbing Oakland Center
Wed 03:12:58 PM 37.3881 -122.0669 146° Southeast 382 440 27,000 537 Climbing Oakland Center
Wed 03:13:59 PM 37.2947 -121.9889 146° Southeast 399 459 27,000  Level Oakland Center
Wed 03:15:01 PM 37.1969 -121.9072 146° Southeast 420 483 27,000  Level Oakland Center
Wed 03:16:02 PM 37.0983 -121.8272 147° Southeast 425 489 27,000  Level Oakland Center
Wed 03:17:04 PM 36.9994 -121.7442 146° Southeast 428 493 27,000  Level Oakland Center
Wed 03:18:05 PM 36.8997 -121.6617 147° Southeast 430 495 27,000  Level Oakland Center
Wed 03:19:07 PM 36.7906 -121.5731 147° Southeast 431 496 27,000  Level Oakland Center
Wed 03:20:08 PM 36.6906 -121.4936 147° Southeast 429 494 27,000  Level Oakland Center
Wed 03:21:10 PM 36.5903 -121.4117 147° Southeast 431 496 27,000  Level Oakland Center
Wed 03:22:11 PM 36.4897 -121.3322 148° Southeast 428 493 27,000  Level Oakland Center
Wed 03:23:13 PM 36.3697 -121.2358 147° Southeast 428 493 27,000  Level Oakland Center
Wed 03:24:14 PM 36.2700 -121.1547 147° Southeast 430 495 27,000  Level Oakland Center
Wed 03:25:16 PM 36.1750 -121.0711 145° Southeast 419 482 27,000  Level Oakland Center
Wed 03:26:17 PM 36.0969 -120.9617 131° Southeast 423 487 27,000  Level Oakland Center
Wed 03:27:19 PM 36.0197 -120.8522 131° Southeast 422 486 27,000  Level Oakland Center
Wed 03:28:20 PM 35.9303 -120.7617 141° Southeast 418 481 27,000  Level Oakland Center
Wed 03:29:22 PM 35.8308 -120.6928 151° Southeast 411 473 27,000  Level Oakland Center
Wed 03:30:23 PM 35.7308 -120.6214 150° Southeast 414 476 27,000  Level Oakland Center
Wed 03:31:25 PM 35.6122 -120.5372 150° Southeast 412 474 27,000 -244 Level Oakland Center
Wed 03:32:26 PM 35.5128 -120.4681 150° Southeast 411 473 26,500 -683 Descending Oakland Center
Wed 03:33:28 PM 35.4242 -120.4064 150° Southeast 416 479 25,600 -927 Descending Oakland Center
Wed 03:34:29 PM 35.3178 -120.3283 149° Southeast 437 503 24,600 -927 Descending Oakland Center
Wed 03:35:31 PM 35.2108 -120.2547 151° Southeast 431 496 23,700 -1,268 Descending Oakland Center
Wed 03:36:32 PM 35.0897 -120.1708 150° Southeast 421 484 22,000 -1,820 Descending Oakland Center
Wed 03:37:33 PM 34.9953 -120.1050 150° Southeast 403 464 20,000 -2,000 Descending Oakland Center
Wed 03:38:35 PM 34.9022 -120.0411 151° Southeast 391 450 17,900 -1,951 Descending Oakland Center
Wed 03:39:36 PM 34.8092 -119.9769 150° Southeast 387 445 16,000 -1,902 Descending Oakland Center
Wed 03:40:38 PM 34.7181 -119.9142 150° Southeast 381 438 14,000 -1,951 Descending Oakland Center
Wed 03:41:39 PM 34.6297 -119.8542 151° Southeast 373 429 12,000 -1,279 Descending Oakland Center
Wed 03:42:54 PM 34.5156 -119.7747 150° Southeast 353 406 11,100 -438 Descending Los Angeles Center
Wed 03:43:56 PM 34.4581 -119.6781 126° Southeast 355 409 11,000 -48 Descending Los Angeles Center
Wed 03:44:58 PM 34.4042 -119.5794 123° Southeast 353 406 11,000  Level Los Angeles Center
Wed 03:46:00 PM 34.3508 -119.4797 123° Southeast 352 405 11,000 -629 Level Los Angeles Center
Wed 03:47:02 PM 34.3017 -119.3908 124° Southeast 314 361 9,700 -1,694 Descending Los Angeles Center
Wed 03:48:04 PM 34.2600 -119.3136 123° Southeast 276 318 7,500 -2,800 Descending Los Angeles Center
Wed 03:49:02 PM 34.2094 -119.2336 127° Southeast 267 307 4,100 -2,471 Descending Los Angeles Center
Wed 03:50:03 PM 34.1744 -119.1644 121° Southeast 238 274 2,600 -984 Descending Los Angeles Center
Wed 03:51:10 PM 34.2086 -119.1069 54° Northeast 268 308 2,000 -537 Descending Los Angeles Center
Wed 03:53:00 PM 34.2008 -119.2072 265° West  Level Estimated
Wed 04:00:00 PM 34.2008 -119.2072 202° Southwest  Level Estimated

Login

Don't have an account? Register now (free) for customized features, flight alerts, and more!